Brisbane, California
Current Conditions -  °F | °C
As of 3:56 PM on Saturday 25 Oct 2014 (Local Time) from KSFO Reporting Station
Broken Clouds Broken Clouds  
Wind Chill: 70°   Ceiling: 5000
Heat Index: 70°   Visibility: 10mi
Dew Point: 58°   Wind: 14mph
Humidity: 65%   Direction: 220°SW
Pressure: 30.07"   Gusts: NA
Location:  37.68°N, 122.4°W
Report Text: KSFO 252256Z 22012KT 10SM FEW030 SCT038 BKN050 21/14 A3007 RMK AO2 SLP181 T02110144 $
Loading
Personal Weather Stations






























Interactive Weather Map
Tropical Storm Tracking
New forecast layout! Learn more

10-Day Weather Forecast

Advertisements
Track Severe Weather on mobile